createdAt,value
2023-02-01T00:00:34.293Z,0.90
2023-02-01T00:03:02.067Z,0.90
2023-02-01T00:05:29.082Z,0.90
2023-02-01T00:07:56.045Z,0.80
2023-02-01T00:10:23.537Z,0.80
2023-02-01T00:12:50.683Z,0.80
2023-02-01T00:15:17.711Z,0.80
2023-02-01T00:17:44.643Z,0.90
2023-02-01T00:20:12.224Z,0.90
2023-02-01T00:22:39.185Z,0.90
2023-02-01T00:25:06.690Z,0.90
2023-02-01T00:27:33.753Z,0.90
2023-02-01T00:30:00.861Z,0.90
2023-02-01T00:32:27.881Z,1.00
2023-02-01T00:34:54.823Z,1.00
2023-02-01T00:37:22.677Z,1.00
2023-02-01T00:39:50.751Z,0.90
2023-02-01T00:42:17.762Z,0.90
2023-02-01T00:44:44.754Z,0.90
2023-02-01T00:47:11.701Z,0.90
2023-02-01T00:49:38.632Z,0.90
2023-02-01T00:52:06.029Z,0.90
2023-02-01T00:54:33.806Z,1.00
2023-02-01T00:57:00.835Z,1.00
2023-02-01T00:59:27.809Z,1.00
2023-02-01T01:01:54.992Z,0.90
2023-02-01T01:04:21.972Z,1.00
2023-02-01T01:06:48.916Z,1.00
2023-02-01T01:09:15.872Z,1.00
2023-02-01T01:11:42.938Z,1.00
2023-02-01T01:14:10.341Z,1.00
2023-02-01T01:16:37.848Z,1.00
2023-02-01T01:19:05.041Z,1.00
2023-02-01T01:21:32.087Z,1.00
2023-02-01T01:23:59.542Z,1.00
2023-02-01T01:26:28.101Z,1.00
2023-02-01T01:28:57.542Z,1.00
2023-02-01T01:31:25.306Z,0.90
2023-02-01T01:33:55.452Z,0.90
2023-02-01T01:36:23.199Z,0.90
2023-02-01T01:38:50.464Z,1.00
2023-02-01T01:41:26.100Z,1.00
2023-02-01T01:44:07.409Z,1.00
2023-02-01T01:46:38.540Z,1.00
2023-02-01T01:49:13.348Z,1.00
2023-02-01T01:51:50.447Z,0.90
2023-02-01T01:54:30.811Z,0.90
2023-02-01T01:57:02.890Z,1.00
2023-02-01T01:59:32.510Z,1.00
2023-02-01T02:01:59.497Z,1.00
2023-02-01T02:04:27.016Z,1.00
2023-02-01T02:07:20.199Z,1.00
2023-02-01T02:09:59.488Z,1.00
2023-02-01T02:12:27.753Z,1.00
2023-02-01T02:14:55.064Z,1.00
2023-02-01T02:17:45.161Z,1.00
2023-02-01T02:20:29.841Z,0.90
2023-02-01T02:23:39.691Z,1.00
2023-02-01T02:26:15.617Z,1.00
2023-02-01T02:29:13.401Z,1.00
2023-02-01T02:31:40.460Z,1.00
2023-02-01T02:34:35.113Z,1.00
2023-02-01T02:37:20.419Z,1.00
2023-02-01T02:39:53.252Z,1.10
2023-02-01T02:42:53.037Z,1.10
2023-02-01T02:45:59.695Z,1.10
2023-02-01T02:48:40.006Z,1.10
2023-02-01T02:51:34.231Z,1.00
2023-02-01T02:54:33.474Z,1.10
2023-02-01T02:57:21.539Z,1.10
2023-02-01T03:00:07.668Z,1.10
2023-02-01T03:02:54.397Z,1.10
2023-02-01T03:05:22.015Z,1.10
2023-02-01T03:07:58.300Z,1.10
2023-02-01T03:10:58.092Z,1.10
2023-02-01T03:13:50.139Z,1.00
2023-02-01T03:16:29.642Z,1.10
2023-02-01T03:19:50.588Z,1.10
2023-02-01T03:22:32.716Z,1.10
2023-02-01T03:25:22.802Z,1.10
2023-02-01T03:28:01.225Z,1.10
2023-02-01T03:30:32.558Z,1.10
2023-02-01T03:33:02.240Z,1.10
2023-02-01T03:35:31.976Z,1.10
2023-02-01T03:38:21.694Z,1.10
2023-02-01T03:40:54.808Z,1.10
2023-02-01T03:43:24.272Z,1.10
2023-02-01T03:46:03.154Z,1.10
2023-02-01T03:48:31.344Z,1.10
2023-02-01T03:51:01.971Z,1.10
2023-02-01T03:53:30.015Z,1.10
2023-02-01T03:55:58.178Z,1.10
2023-02-01T03:58:25.339Z,1.10
2023-02-01T04:00:58.225Z,1.10
2023-02-01T04:03:26.945Z,1.10
2023-02-01T04:05:55.032Z,1.10
2023-02-01T04:08:22.711Z,1.10
2023-02-01T04:10:49.619Z,1.00
2023-02-01T04:13:16.562Z,1.00
2023-02-01T04:15:44.264Z,1.10
2023-02-01T04:18:11.256Z,1.00
2023-02-01T04:20:38.169Z,1.00
2023-02-01T04:23:05.166Z,1.00
2023-02-01T04:25:32.137Z,1.10
2023-02-01T04:28:00.566Z,1.10
2023-02-01T04:30:27.628Z,1.10
2023-02-01T04:32:54.545Z,1.00
2023-02-01T04:35:21.521Z,1.10
2023-02-01T04:37:48.474Z,1.10
2023-02-01T04:40:15.511Z,1.10
2023-02-01T04:42:42.427Z,1.10
2023-02-01T04:45:10.052Z,1.10
2023-02-01T04:47:37.071Z,1.10
2023-02-01T04:50:04.499Z,1.10
2023-02-01T04:52:31.534Z,1.10
2023-02-01T04:55:00.283Z,1.10
2023-02-01T04:57:27.264Z,1.10
2023-02-01T04:59:54.319Z,1.10
2023-02-01T05:02:21.255Z,1.10
2023-02-01T05:04:48.217Z,1.10
2023-02-01T05:07:15.266Z,1.10
2023-02-01T05:09:42.213Z,1.10
2023-02-01T05:12:29.429Z,1.10
2023-02-01T05:14:56.407Z,1.10
2023-02-01T05:17:23.342Z,1.10
2023-02-01T05:19:50.300Z,1.10
2023-02-01T05:22:17.280Z,1.10
2023-02-01T05:24:44.272Z,1.10
2023-02-01T05:27:11.292Z,1.20
2023-02-01T05:29:49.878Z,1.20
2023-02-01T05:32:22.730Z,1.20
2023-02-01T05:34:50.412Z,1.20
2023-02-01T05:37:17.396Z,1.20
2023-02-01T05:39:44.361Z,1.20
2023-02-01T05:42:11.408Z,1.10
2023-02-01T05:44:38.329Z,1.10
2023-02-01T05:47:05.478Z,1.10
2023-02-01T05:49:32.445Z,1.10
2023-02-01T05:52:00.449Z,1.10
2023-02-01T05:54:27.757Z,1.10
2023-02-01T05:56:54.876Z,1.10
2023-02-01T05:59:21.841Z,1.10
2023-02-01T06:01:48.777Z,1.10
2023-02-01T06:04:15.700Z,1.10
2023-02-01T06:06:42.642Z,1.10
2023-02-01T06:09:09.582Z,1.10
2023-02-01T06:11:36.565Z,1.10
2023-02-01T06:14:03.606Z,1.10
2023-02-01T06:16:30.552Z,1.10
2023-02-01T06:18:57.622Z,1.10
2023-02-01T06:21:24.921Z,1.10
2023-02-01T06:23:54.779Z,1.10
2023-02-01T06:26:22.042Z,1.10
2023-02-01T06:28:49.078Z,1.10
2023-02-01T06:31:16.283Z,1.10
2023-02-01T06:33:43.385Z,1.10
2023-02-01T06:36:13.482Z,1.10
2023-02-01T06:38:40.688Z,1.10
2023-02-01T06:41:07.789Z,1.10
2023-02-01T06:43:35.099Z,1.10
2023-02-01T06:46:04.210Z,1.10
2023-02-01T06:48:32.130Z,1.10
2023-02-01T06:50:59.395Z,1.10
2023-02-01T06:53:27.025Z,1.10
2023-02-01T06:56:01.635Z,1.10
2023-02-01T06:58:34.445Z,1.20
2023-02-01T07:01:09.870Z,1.20
2023-02-01T07:03:37.564Z,1.20
2023-02-01T07:06:05.672Z,1.20
2023-02-01T07:08:34.389Z,1.20
2023-02-01T07:11:09.725Z,1.20
2023-02-01T07:13:37.096Z,1.20
2023-02-01T07:16:07.181Z,1.30
2023-02-01T07:18:34.429Z,1.20
2023-02-01T07:21:01.674Z,1.30
2023-02-01T07:23:28.888Z,1.30
2023-02-01T07:25:57.291Z,1.30
2023-02-01T07:28:24.773Z,1.30
2023-02-01T07:30:52.178Z,1.30
2023-02-01T07:33:27.017Z,1.30
2023-02-01T07:35:54.918Z,1.40
2023-02-01T07:38:22.895Z,1.40
2023-02-01T07:40:49.809Z,1.40
2023-02-01T07:43:16.904Z,1.40
2023-02-01T07:45:43.842Z,1.50
2023-02-01T07:48:10.808Z,1.40
2023-02-01T07:50:37.719Z,1.40
2023-02-01T07:53:04.654Z,1.40
2023-02-01T07:55:31.734Z,1.50
2023-02-01T07:57:59.889Z,1.40
2023-02-01T08:00:46.131Z,1.40
2023-02-01T08:03:13.137Z,1.40
2023-02-01T08:05:45.850Z,1.50
2023-02-01T08:08:12.835Z,1.50
2023-02-01T08:10:39.826Z,1.40
2023-02-01T08:13:06.781Z,1.50
2023-02-01T08:15:33.780Z,1.50
2023-02-01T08:18:00.991Z,1.50
2023-02-01T08:20:28.204Z,1.60
2023-02-01T08:22:55.819Z,1.60
2023-02-01T08:25:23.460Z,1.60
2023-02-01T08:27:51.525Z,1.70
2023-02-01T08:30:18.734Z,1.70
2023-02-01T08:32:45.737Z,1.70
2023-02-01T08:35:12.967Z,1.70
2023-02-01T08:37:39.905Z,1.70
2023-02-01T08:40:07.702Z,1.70
2023-02-01T08:43:06.729Z,1.70
2023-02-01T08:45:34.687Z,1.80
2023-02-01T08:48:01.629Z,1.80
2023-02-01T08:50:28.630Z,1.90
2023-02-01T08:52:55.899Z,1.80
2023-02-01T08:55:22.868Z,1.90
2023-02-01T08:57:49.828Z,1.90
2023-02-01T09:00:18.587Z,1.90
2023-02-01T09:02:46.219Z,1.90
2023-02-01T09:05:15.108Z,1.90
2023-02-01T09:07:42.143Z,1.90
2023-02-01T09:10:09.883Z,2.00
2023-02-01T09:12:36.985Z,2.10
2023-02-01T09:15:04.734Z,2.00
2023-02-01T09:17:31.791Z,2.10
2023-02-01T09:19:58.797Z,2.00
2023-02-01T09:22:26.030Z,2.10
2023-02-01T09:24:55.263Z,2.10
2023-02-01T09:27:22.957Z,2.10
2023-02-01T09:29:53.531Z,2.10
2023-02-01T09:32:22.431Z,2.10
2023-02-01T09:34:50.373Z,2.10
2023-02-01T09:37:17.589Z,2.00
2023-02-01T09:39:44.598Z,2.00
2023-02-01T09:42:14.296Z,2.00
2023-02-01T09:44:44.857Z,2.10
2023-02-01T09:47:18.348Z,2.10
2023-02-01T09:50:07.113Z,2.20
2023-02-01T09:53:03.453Z,2.20
2023-02-01T09:55:37.934Z,2.30
2023-02-01T09:58:27.377Z,2.40
2023-02-01T10:00:58.200Z,2.40
2023-02-01T10:03:36.688Z,2.40
2023-02-01T10:06:42.485Z,2.40
2023-02-01T10:09:21.117Z,2.40
2023-02-01T10:12:05.959Z,2.50
2023-02-01T10:14:58.006Z,2.50
2023-02-01T10:17:52.484Z,2.50
2023-02-01T10:20:28.378Z,2.50
2023-02-01T10:23:33.268Z,2.50
2023-02-01T10:26:33.940Z,2.50
2023-02-01T10:29:05.816Z,2.60
2023-02-01T10:31:38.523Z,2.50
2023-02-01T10:34:24.848Z,2.50
2023-02-01T10:37:23.562Z,2.50
2023-02-01T10:39:53.371Z,2.50
2023-02-01T10:42:26.211Z,2.50
2023-02-01T10:44:54.743Z,2.50
2023-02-01T10:47:22.017Z,2.60
2023-02-01T10:49:53.530Z,2.60
2023-02-01T10:52:36.195Z,2.60
2023-02-01T10:55:51.082Z,2.60
2023-02-01T10:58:21.186Z,2.60
2023-02-01T11:00:58.797Z,2.60
2023-02-01T11:03:39.891Z,2.70
2023-02-01T11:06:28.246Z,2.70
2023-02-01T11:09:11.252Z,2.70
2023-02-01T11:11:50.488Z,2.60
2023-02-01T11:14:40.583Z,2.60
2023-02-01T11:17:19.557Z,2.60
2023-02-01T11:19:59.321Z,2.50
2023-02-01T11:22:29.574Z,2.50
2023-02-01T11:24:57.488Z,2.50
2023-02-01T11:27:27.958Z,2.50
2023-02-01T11:30:01.744Z,2.60
2023-02-01T11:32:29.180Z,2.60
2023-02-01T11:35:03.835Z,2.60
2023-02-01T11:37:43.881Z,2.60
2023-02-01T11:40:17.219Z,2.80
2023-02-01T11:43:08.585Z,2.70
2023-02-01T11:45:36.063Z,2.80
2023-02-01T11:48:26.261Z,2.80
2023-02-01T11:50:58.745Z,2.90
2023-02-01T11:53:53.491Z,3.00
2023-02-01T11:56:45.384Z,3.00
2023-02-01T11:59:56.340Z,3.10
2023-02-01T12:02:37.699Z,3.00
2023-02-01T12:05:23.259Z,3.00
2023-02-01T12:08:17.642Z,3.10
2023-02-01T12:10:59.429Z,3.10
2023-02-01T12:13:48.281Z,3.10
2023-02-01T12:16:24.103Z,3.10
2023-02-01T12:19:05.904Z,3.10
2023-02-01T12:21:53.963Z,3.10
2023-02-01T12:24:51.273Z,3.10
2023-02-01T12:27:24.030Z,3.10
2023-02-01T12:30:23.835Z,3.10
2023-02-01T12:33:15.290Z,3.10
2023-02-01T12:36:08.213Z,3.10
2023-02-01T12:38:46.872Z,3.10
2023-02-01T12:41:51.494Z,3.10
2023-02-01T12:44:40.667Z,3.00
2023-02-01T12:47:36.504Z,3.00
2023-02-01T12:50:38.939Z,3.00
2023-02-01T12:53:15.553Z,3.00
2023-02-01T12:55:51.764Z,3.00
2023-02-01T12:58:28.146Z,3.00
2023-02-01T13:01:09.636Z,2.90
2023-02-01T13:04:24.784Z,2.90
2023-02-01T13:06:59.462Z,2.90
2023-02-01T13:09:40.594Z,2.90
2023-02-01T13:12:36.341Z,2.90
2023-02-01T13:15:17.445Z,2.80
2023-02-01T13:17:47.495Z,2.80
2023-02-01T13:20:20.131Z,2.80
2023-02-01T13:23:18.049Z,2.70
2023-02-01T13:25:52.016Z,2.70
2023-02-01T13:28:48.276Z,2.60
2023-02-01T13:31:30.295Z,2.50
2023-02-01T13:34:03.117Z,2.50
2023-02-01T13:36:36.996Z,2.40
2023-02-01T13:39:22.643Z,2.40
2023-02-01T13:41:52.407Z,2.40
2023-02-01T13:44:38.600Z,2.40
2023-02-01T13:47:25.978Z,2.40
2023-02-01T13:49:55.711Z,2.50
2023-02-01T13:52:37.696Z,2.40
2023-02-01T13:55:22.044Z,2.50
2023-02-01T13:57:51.836Z,2.50
2023-02-01T14:00:36.809Z,2.40
2023-02-01T14:03:13.122Z,2.40
2023-02-01T14:05:40.075Z,2.40
2023-02-01T14:08:07.200Z,2.40
2023-02-01T14:10:46.568Z,2.30
2023-02-01T14:13:41.401Z,2.30
2023-02-01T14:16:15.917Z,2.30
2023-02-01T14:18:43.004Z,2.30
2023-02-01T14:21:34.435Z,2.30
2023-02-01T14:26:38.946Z,2.20
2023-02-01T14:29:21.720Z,2.20
2023-02-01T14:32:07.998Z,2.20
2023-02-01T14:34:55.618Z,2.20
2023-02-01T14:37:23.014Z,2.10
2023-02-01T14:40:02.545Z,2.10
2023-02-01T14:42:33.581Z,2.10
2023-02-01T14:45:26.144Z,2.10
2023-02-01T14:47:55.640Z,2.10
2023-02-01T14:50:38.504Z,2.10
2023-02-01T14:53:11.866Z,2.10
2023-02-01T14:56:02.883Z,2.10
2023-02-01T14:58:32.715Z,2.10
2023-02-01T15:01:06.934Z,2.10
2023-02-01T15:03:49.744Z,2.10
2023-02-01T15:06:33.053Z,2.00
2023-02-01T15:09:09.888Z,2.00
2023-02-01T15:12:05.161Z,2.00
2023-02-01T15:14:39.715Z,2.00
2023-02-01T15:17:22.028Z,2.00
2023-02-01T15:20:00.355Z,2.00
2023-02-01T15:22:29.136Z,2.00
2023-02-01T15:25:01.348Z,2.00
2023-02-01T15:27:30.031Z,2.00
2023-02-01T15:30:17.162Z,2.00
2023-02-01T15:32:44.150Z,2.00
2023-02-01T15:35:32.955Z,1.90
2023-02-01T15:38:24.882Z,2.00
2023-02-01T15:41:01.232Z,1.90
2023-02-01T15:43:30.131Z,1.90
2023-02-01T15:45:59.231Z,1.90
2023-02-01T15:48:28.121Z,1.90
2023-02-01T15:50:56.957Z,1.90
2023-02-01T15:53:31.933Z,1.90
2023-02-01T15:56:02.861Z,1.80
2023-02-01T15:58:29.772Z,1.80
2023-02-01T16:01:03.318Z,1.80
2023-02-01T16:03:36.642Z,1.80
2023-02-01T16:06:12.367Z,1.80
2023-02-01T16:08:51.923Z,1.70
2023-02-01T16:11:24.615Z,1.60
2023-02-01T16:13:51.702Z,1.60
2023-02-01T16:16:21.478Z,1.60
2023-02-01T16:18:51.229Z,1.50
2023-02-01T16:21:24.103Z,1.50
2023-02-01T16:23:52.572Z,1.50
2023-02-01T16:26:23.874Z,1.50
2023-02-01T16:28:50.885Z,1.40
2023-02-01T16:31:22.664Z,1.40
2023-02-01T16:33:53.157Z,1.40
2023-02-01T16:36:20.712Z,1.40
2023-02-01T16:38:50.293Z,1.40
2023-02-01T16:41:19.877Z,1.30
2023-02-01T16:43:50.163Z,1.30
2023-02-01T16:46:25.308Z,1.30
2023-02-01T16:49:00.184Z,1.30
2023-02-01T16:51:30.693Z,1.40
2023-02-01T16:53:57.802Z,1.30
2023-02-01T16:56:30.575Z,1.40
2023-02-01T16:58:57.906Z,1.40
2023-02-01T17:01:25.110Z,1.40
2023-02-01T17:03:52.669Z,1.30
2023-02-01T17:06:22.820Z,1.30
2023-02-01T17:08:55.867Z,1.30
2023-02-01T17:11:23.005Z,1.30
2023-02-01T17:13:53.274Z,1.20
2023-02-01T17:16:20.274Z,1.30
2023-02-01T17:18:57.517Z,1.20
2023-02-01T17:21:26.671Z,1.20
2023-02-01T17:23:54.034Z,1.20
2023-02-01T17:26:21.171Z,1.20
2023-02-01T17:28:48.245Z,1.20
2023-02-01T17:31:17.317Z,1.20
2023-02-01T17:33:45.183Z,1.20
2023-02-01T17:36:17.103Z,1.20
2023-02-01T17:38:48.806Z,1.20
2023-02-01T17:41:21.025Z,1.20
2023-02-01T17:43:49.516Z,1.10
2023-02-01T17:46:18.915Z,1.20
2023-02-01T17:48:46.000Z,1.10
2023-02-01T17:51:18.170Z,1.10
2023-02-01T17:53:46.227Z,1.10
2023-02-01T17:56:18.410Z,1.10
2023-02-01T17:58:45.833Z,1.10
2023-02-01T18:01:24.838Z,1.10
2023-02-01T18:03:52.204Z,1.10
2023-02-01T18:06:26.534Z,1.10
2023-02-01T18:08:54.430Z,1.10
2023-02-01T18:11:23.850Z,1.10
2023-02-01T18:13:55.786Z,1.10
2023-02-01T18:16:24.857Z,1.10
2023-02-01T18:18:52.355Z,1.10
2023-02-01T18:21:24.103Z,1.00
2023-02-01T18:23:51.150Z,1.10
2023-02-01T18:26:19.097Z,1.10
2023-02-01T18:28:46.128Z,1.10
2023-02-01T18:31:31.754Z,1.10
2023-02-01T18:34:00.231Z,1.00
2023-02-01T18:36:28.223Z,1.10
2023-02-01T18:38:57.686Z,1.00
2023-02-01T18:41:25.551Z,1.10
2023-02-01T18:43:53.655Z,1.10
2023-02-01T18:46:22.203Z,1.00
2023-02-01T18:48:49.442Z,1.10
2023-02-01T18:51:20.821Z,1.10
2023-02-01T18:53:48.771Z,1.00
2023-02-01T18:56:18.603Z,1.00
2023-02-01T18:58:46.181Z,1.10
2023-02-01T19:01:21.706Z,1.10
2023-02-01T19:03:52.635Z,1.10
2023-02-01T19:06:27.084Z,1.10
2023-02-01T19:08:56.176Z,1.10
2023-02-01T19:11:23.213Z,1.10
2023-02-01T19:13:51.383Z,1.10
2023-02-01T19:16:18.369Z,1.00
2023-02-01T19:18:45.450Z,1.00
2023-02-01T19:21:13.814Z,1.10
2023-02-01T19:23:42.030Z,1.10
2023-02-01T19:26:13.616Z,1.00
2023-02-01T19:28:40.940Z,1.00
2023-02-01T19:31:09.045Z,1.00
2023-02-01T19:33:36.370Z,1.00
2023-02-01T19:36:06.129Z,1.00
2023-02-01T19:38:33.926Z,1.10
2023-02-01T19:41:01.285Z,1.00
2023-02-01T19:43:28.515Z,1.00
2023-02-01T19:45:56.117Z,1.00
2023-02-01T19:48:23.153Z,1.00
2023-02-01T19:50:50.488Z,1.00
2023-02-01T19:53:19.399Z,1.00
2023-02-01T19:55:47.178Z,1.00
2023-02-01T19:58:14.743Z,1.00
2023-02-01T20:00:41.237Z,1.00
2023-02-01T20:03:08.637Z,1.00
2023-02-01T20:05:35.659Z,1.00
2023-02-01T20:08:10.761Z,1.00
2023-02-01T20:10:46.270Z,1.00
2023-02-01T20:13:13.739Z,1.00
2023-02-01T20:15:42.175Z,1.00
2023-02-01T20:18:10.471Z,1.10
2023-02-01T20:20:38.525Z,1.10
2023-02-01T20:23:06.616Z,1.00
2023-02-01T20:25:34.554Z,1.10
2023-02-01T20:28:01.787Z,1.10
2023-02-01T20:30:29.539Z,1.10
2023-02-01T20:32:56.689Z,1.10
2023-02-01T20:35:24.095Z,1.10
2023-02-01T20:37:51.918Z,1.10
2023-02-01T20:40:19.055Z,1.10
2023-02-01T20:42:46.261Z,1.10
2023-02-01T20:45:13.444Z,1.10
2023-02-01T20:47:42.503Z,1.10
2023-02-01T20:50:10.232Z,1.10
2023-02-01T20:52:37.168Z,1.10
2023-02-01T20:55:04.393Z,1.10
2023-02-01T20:57:31.342Z,1.10
2023-02-01T20:59:58.314Z,1.10
2023-02-01T21:27:13.683Z,1.10
2023-02-01T21:29:40.661Z,1.10
2023-02-01T21:32:08.904Z,1.00
2023-02-01T21:34:36.262Z,1.00
2023-02-01T21:37:03.754Z,1.00
2023-02-01T21:39:30.906Z,1.00
2023-02-01T21:42:18.287Z,1.00
2023-02-01T21:44:49.089Z,1.00
2023-02-01T21:47:17.463Z,1.00
2023-02-01T21:49:46.165Z,1.00
2023-02-01T21:52:14.270Z,1.00
2023-02-01T21:54:41.673Z,1.00
2023-02-01T21:57:12.765Z,1.00
2023-02-01T21:59:40.541Z,1.00
2023-02-01T22:02:17.644Z,1.00
2023-02-01T22:04:45.205Z,1.00
2023-02-01T22:07:12.784Z,1.10
2023-02-01T22:09:40.097Z,1.00
2023-02-01T22:12:08.584Z,1.10
2023-02-01T22:14:35.570Z,1.10
2023-02-01T22:17:02.638Z,1.00
2023-02-01T22:19:29.733Z,1.00
2023-02-01T22:21:56.754Z,1.10
2023-02-01T22:24:38.538Z,1.10
2023-02-01T22:27:13.226Z,1.10
2023-02-01T22:29:44.796Z,1.10
2023-02-01T22:32:13.979Z,1.10
2023-02-01T22:34:43.590Z,1.10
2023-02-01T22:37:11.866Z,1.10
2023-02-01T22:39:39.417Z,1.10
2023-02-01T22:42:06.431Z,1.10
2023-02-01T22:44:33.391Z,1.10
2023-02-01T22:47:00.308Z,1.10
2023-02-01T22:49:27.241Z,1.10
2023-02-01T22:51:56.906Z,1.10
2023-02-01T22:54:23.856Z,1.10
2023-02-01T22:56:50.854Z,1.10
2023-02-01T22:59:17.876Z,1.10
2023-02-01T23:01:45.309Z,1.10
2023-02-01T23:04:14.864Z,1.10
2023-02-01T23:06:41.888Z,1.10
2023-02-01T23:09:21.377Z,1.10
2023-02-01T23:11:49.292Z,1.10
2023-02-01T23:14:16.920Z,1.10
2023-02-01T23:16:48.615Z,1.10
2023-02-01T23:19:16.151Z,1.20
2023-02-01T23:21:43.425Z,1.20
2023-02-01T23:24:11.255Z,1.20
2023-02-01T23:26:39.044Z,1.10
2023-02-01T23:29:06.347Z,1.10
2023-02-01T23:31:35.068Z,1.20
2023-02-01T23:34:03.812Z,1.20
2023-02-01T23:36:42.534Z,1.20
2023-02-01T23:39:09.527Z,1.20
2023-02-01T23:41:36.590Z,1.20
2023-02-01T23:44:03.660Z,1.20
2023-02-01T23:46:30.663Z,1.20
2023-02-01T23:48:58.130Z,1.20
2023-02-01T23:51:25.295Z,1.20
2023-02-01T23:53:52.717Z,1.20
2023-02-01T23:56:26.925Z,1.20
2023-02-01T23:58:54.889Z,1.20
